sensor_id;sensor_type;location;lat;lon;timestamp;P1;durP1;ratioP1;P2;durP2;ratioP2
78840;SDS011;68379;47.190;27.558;2023-04-06T00:01:54;4.80;;;2.60;;
78840;SDS011;68379;47.190;27.558;2023-04-06T00:04:26;8.20;;;4.80;;
78840;SDS011;68379;47.190;27.558;2023-04-06T00:06:58;6.30;;;2.90;;
78840;SDS011;68379;47.190;27.558;2023-04-06T00:09:30;4.30;;;3.00;;
78840;SDS011;68379;47.190;27.558;2023-04-06T00:12:02;6.50;;;3.90;;
78840;SDS011;68379;47.190;27.558;2023-04-06T00:14:34;3.70;;;2.50;;
78840;SDS011;68379;47.190;27.558;2023-04-06T00:17:06;4.00;;;1.80;;
78840;SDS011;68379;47.190;27.558;2023-04-06T00:19:38;4.80;;;2.50;;
78840;SDS011;68379;47.190;27.558;2023-04-06T00:22:10;4.30;;;3.10;;
78840;SDS011;68379;47.190;27.558;2023-04-06T00:24:42;4.10;;;2.70;;
78840;SDS011;68379;47.190;27.558;2023-04-06T00:27:13;6.60;;;3.20;;
78840;SDS011;68379;47.190;27.558;2023-04-06T00:29:45;4.70;;;3.30;;
78840;SDS011;68379;47.190;27.558;2023-04-06T00:32:17;4.50;;;2.80;;
78840;SDS011;68379;47.190;27.558;2023-04-06T00:34:49;3.90;;;2.00;;
78840;SDS011;68379;47.190;27.558;2023-04-06T00:37:21;3.50;;;2.30;;
78840;SDS011;68379;47.190;27.558;2023-04-06T00:39:53;4.50;;;3.40;;
78840;SDS011;68379;47.190;27.558;2023-04-06T00:42:25;2.80;;;1.90;;
78840;SDS011;68379;47.190;27.558;2023-04-06T00:44:58;4.30;;;2.40;;
78840;SDS011;68379;47.190;27.558;2023-04-06T00:47:30;4.00;;;2.00;;
78840;SDS011;68379;47.190;27.558;2023-04-06T00:50:03;4.40;;;2.00;;
78840;SDS011;68379;47.190;27.558;2023-04-06T00:52:36;3.40;;;1.90;;
78840;SDS011;68379;47.190;27.558;2023-04-06T00:55:09;2.50;;;1.20;;
78840;SDS011;68379;47.190;27.558;2023-04-06T00:57:40;5.10;;;3.20;;
78840;SDS011;68379;47.190;27.558;2023-04-06T01:00:13;3.30;;;2.60;;
78840;SDS011;68379;47.190;27.558;2023-04-06T01:02:46;3.90;;;2.40;;
78840;SDS011;68379;47.190;27.558;2023-04-06T01:05:18;3.40;;;1.90;;
78840;SDS011;68379;47.190;27.558;2023-04-06T01:07:50;5.80;;;3.70;;
78840;SDS011;68379;47.190;27.558;2023-04-06T01:10:26;4.50;;;2.70;;
78840;SDS011;68379;47.190;27.558;2023-04-06T01:12:58;4.50;;;2.60;;
78840;SDS011;68379;47.190;27.558;2023-04-06T01:15:30;4.40;;;1.80;;
78840;SDS011;68379;47.190;27.558;2023-04-06T01:18:07;2.80;;;1.80;;
78840;SDS011;68379;47.190;27.558;2023-04-06T01:20:39;7.10;;;3.60;;
78840;SDS011;68379;47.190;27.558;2023-04-06T01:23:12;3.90;;;2.30;;
78840;SDS011;68379;47.190;27.558;2023-04-06T01:25:44;5.40;;;3.70;;
78840;SDS011;68379;47.190;27.558;2023-04-06T01:28:16;3.80;;;2.50;;
78840;SDS011;68379;47.190;27.558;2023-04-06T01:30:48;5.40;;;3.40;;
78840;SDS011;68379;47.190;27.558;2023-04-06T01:33:20;5.00;;;3.30;;
78840;SDS011;68379;47.190;27.558;2023-04-06T01:35:52;3.10;;;2.00;;
78840;SDS011;68379;47.190;27.558;2023-04-06T01:38:23;4.10;;;2.90;;
78840;SDS011;68379;47.190;27.558;2023-04-06T01:40:55;3.30;;;2.30;;
78840;SDS011;68379;47.190;27.558;2023-04-06T01:43:27;3.60;;;2.40;;
78840;SDS011;68379;47.190;27.558;2023-04-06T01:46:00;6.20;;;3.20;;
78840;SDS011;68379;47.190;27.558;2023-04-06T01:48:32;4.10;;;2.80;;
78840;SDS011;68379;47.190;27.558;2023-04-06T01:51:04;5.50;;;3.60;;
78840;SDS011;68379;47.190;27.558;2023-04-06T01:53:36;4.50;;;3.10;;
78840;SDS011;68379;47.190;27.558;2023-04-06T01:56:09;4.50;;;3.00;;
78840;SDS011;68379;47.190;27.558;2023-04-06T01:58:41;3.30;;;2.30;;
78840;SDS011;68379;47.190;27.558;2023-04-06T02:01:13;5.30;;;3.60;;
78840;SDS011;68379;47.190;27.558;2023-04-06T02:03:45;4.40;;;2.70;;
78840;SDS011;68379;47.190;27.558;2023-04-06T02:06:17;4.40;;;2.70;;
78840;SDS011;68379;47.190;27.558;2023-04-06T02:08:49;2.70;;;1.50;;
78840;SDS011;68379;47.190;27.558;2023-04-06T02:11:22;5.70;;;3.20;;
78840;SDS011;68379;47.190;27.558;2023-04-06T02:13:54;5.80;;;3.20;;
78840;SDS011;68379;47.190;27.558;2023-04-06T02:16:25;5.50;;;3.40;;
78840;SDS011;68379;47.190;27.558;2023-04-06T02:18:58;3.70;;;2.50;;
78840;SDS011;68379;47.190;27.558;2023-04-06T02:21:30;5.30;;;2.10;;
78840;SDS011;68379;47.190;27.558;2023-04-06T02:24:02;5.30;;;3.00;;
78840;SDS011;68379;47.190;27.558;2023-04-06T02:26:35;4.80;;;3.10;;
78840;SDS011;68379;47.190;27.558;2023-04-06T02:29:06;3.50;;;2.40;;
78840;SDS011;68379;47.190;27.558;2023-04-06T02:31:39;2.70;;;1.90;;
78840;SDS011;68379;47.190;27.558;2023-04-06T02:34:11;4.70;;;2.40;;
78840;SDS011;68379;47.190;27.558;2023-04-06T02:36:46;4.60;;;2.80;;
78840;SDS011;68379;47.190;27.558;2023-04-06T02:39:18;3.60;;;2.70;;
78840;SDS011;68379;47.190;27.558;2023-04-06T02:41:51;3.30;;;1.90;;
78840;SDS011;68379;47.190;27.558;2023-04-06T02:44:23;5.10;;;3.30;;
78840;SDS011;68379;47.190;27.558;2023-04-06T02:46:55;4.90;;;2.80;;
78840;SDS011;68379;47.190;27.558;2023-04-06T02:49:27;4.30;;;2.70;;
78840;SDS011;68379;47.190;27.558;2023-04-06T02:51:59;2.70;;;1.60;;
78840;SDS011;68379;47.190;27.558;2023-04-06T02:54:31;3.70;;;2.60;;
78840;SDS011;68379;47.190;27.558;2023-04-06T02:57:03;5.20;;;4.60;;
78840;SDS011;68379;47.190;27.558;2023-04-06T02:59:35;3.20;;;1.80;;
78840;SDS011;68379;47.190;27.558;2023-04-06T03:02:07;3.60;;;1.70;;
78840;SDS011;68379;47.190;27.558;2023-04-06T03:04:39;6.90;;;3.60;;
78840;SDS011;68379;47.190;27.558;2023-04-06T03:07:11;5.80;;;2.70;;
78840;SDS011;68379;47.190;27.558;2023-04-06T03:09:43;6.60;;;3.70;;
78840;SDS011;68379;47.190;27.558;2023-04-06T03:12:15;3.70;;;2.60;;
78840;SDS011;68379;47.190;27.558;2023-04-06T03:14:47;6.00;;;3.00;;
78840;SDS011;68379;47.190;27.558;2023-04-06T03:17:20;2.70;;;2.30;;
78840;SDS011;68379;47.190;27.558;2023-04-06T03:19:52;3.30;;;2.00;;
78840;SDS011;68379;47.190;27.558;2023-04-06T03:22:23;3.40;;;1.90;;
78840;SDS011;68379;47.190;27.558;2023-04-06T03:24:55;4.70;;;2.20;;
78840;SDS011;68379;47.190;27.558;2023-04-06T03:27:27;3.60;;;2.40;;
78840;SDS011;68379;47.190;27.558;2023-04-06T03:29:59;2.80;;;1.50;;
78840;SDS011;68379;47.190;27.558;2023-04-06T03:32:31;3.60;;;2.10;;
78840;SDS011;68379;47.190;27.558;2023-04-06T03:35:03;5.10;;;2.60;;
78840;SDS011;68379;47.190;27.558;2023-04-06T03:37:36;6.60;;;3.30;;
78840;SDS011;68379;47.190;27.558;2023-04-06T03:40:09;3.50;;;2.20;;
78840;SDS011;68379;47.190;27.558;2023-04-06T03:42:41;5.00;;;2.70;;
78840;SDS011;68379;47.190;27.558;2023-04-06T03:45:13;3.80;;;2.30;;
78840;SDS011;68379;47.190;27.558;2023-04-06T03:47:45;3.30;;;2.20;;
78840;SDS011;68379;47.190;27.558;2023-04-06T03:50:17;4.30;;;2.90;;
78840;SDS011;68379;47.190;27.558;2023-04-06T03:52:49;2.80;;;1.90;;
78840;SDS011;68379;47.190;27.558;2023-04-06T03:55:21;2.60;;;1.50;;
78840;SDS011;68379;47.190;27.558;2023-04-06T03:57:53;4.50;;;2.10;;
78840;SDS011;68379;47.190;27.558;2023-04-06T04:00:26;4.10;;;2.00;;
78840;SDS011;68379;47.190;27.558;2023-04-06T04:02:59;3.20;;;1.70;;
78840;SDS011;68379;47.190;27.558;2023-04-06T04:05:31;4.70;;;2.70;;
78840;SDS011;68379;47.190;27.558;2023-04-06T04:08:03;4.40;;;2.50;;
78840;SDS011;68379;47.190;27.558;2023-04-06T04:10:35;3.50;;;1.60;;
78840;SDS011;68379;47.190;27.558;2023-04-06T04:13:07;5.20;;;3.30;;
78840;SDS011;68379;47.190;27.558;2023-04-06T04:15:39;4.00;;;2.20;;
78840;SDS011;68379;47.190;27.558;2023-04-06T04:18:11;5.00;;;2.70;;
78840;SDS011;68379;47.190;27.558;2023-04-06T04:20:43;2.80;;;1.80;;
78840;SDS011;68379;47.190;27.558;2023-04-06T04:23:15;3.60;;;2.20;;
78840;SDS011;68379;47.190;27.558;2023-04-06T04:25:47;3.10;;;1.60;;
78840;SDS011;68379;47.190;27.558;2023-04-06T04:28:19;2.30;;;1.20;;
78840;SDS011;68379;47.190;27.558;2023-04-06T04:30:51;3.80;;;2.40;;
78840;SDS011;68379;47.190;27.558;2023-04-06T04:33:23;3.60;;;1.80;;
78840;SDS011;68379;47.190;27.558;2023-04-06T04:35:55;3.50;;;2.10;;
78840;SDS011;68379;47.190;27.558;2023-04-06T04:38:27;5.50;;;2.80;;
78840;SDS011;68379;47.190;27.558;2023-04-06T04:40:59;2.50;;;1.60;;
78840;SDS011;68379;47.190;27.558;2023-04-06T04:43:31;6.20;;;2.70;;
78840;SDS011;68379;47.190;27.558;2023-04-06T04:46:03;4.10;;;1.80;;
78840;SDS011;68379;47.190;27.558;2023-04-06T04:48:35;3.10;;;2.00;;
78840;SDS011;68379;47.190;27.558;2023-04-06T04:51:07;3.70;;;3.00;;
78840;SDS011;68379;47.190;27.558;2023-04-06T04:53:38;3.90;;;3.10;;
78840;SDS011;68379;47.190;27.558;2023-04-06T04:56:10;5.00;;;2.70;;
78840;SDS011;68379;47.190;27.558;2023-04-06T04:58:42;5.00;;;2.50;;
78840;SDS011;68379;47.190;27.558;2023-04-06T05:01:14;4.60;;;1.80;;
78840;SDS011;68379;47.190;27.558;2023-04-06T05:03:46;3.20;;;2.00;;
78840;SDS011;68379;47.190;27.558;2023-04-06T05:06:17;5.00;;;2.90;;
78840;SDS011;68379;47.190;27.558;2023-04-06T05:08:49;3.40;;;2.20;;
78840;SDS011;68379;47.190;27.558;2023-04-06T05:11:21;5.20;;;2.60;;
78840;SDS011;68379;47.190;27.558;2023-04-06T05:13:53;3.40;;;2.10;;
78840;SDS011;68379;47.190;27.558;2023-04-06T05:16:26;4.30;;;2.80;;
78840;SDS011;68379;47.190;27.558;2023-04-06T05:18:58;4.90;;;2.90;;
78840;SDS011;68379;47.190;27.558;2023-04-06T05:21:30;2.40;;;1.50;;
78840;SDS011;68379;47.190;27.558;2023-04-06T05:24:02;3.90;;;2.80;;
78840;SDS011;68379;47.190;27.558;2023-04-06T05:26:35;3.30;;;2.30;;
78840;SDS011;68379;47.190;27.558;2023-04-06T05:29:07;3.50;;;2.00;;
78840;SDS011;68379;47.190;27.558;2023-04-06T05:31:39;6.10;;;3.20;;
78840;SDS011;68379;47.190;27.558;2023-04-06T05:34:12;5.70;;;3.60;;
78840;SDS011;68379;47.190;27.558;2023-04-06T05:36:44;3.60;;;2.40;;
78840;SDS011;68379;47.190;27.558;2023-04-06T05:39:15;3.20;;;1.80;;
78840;SDS011;68379;47.190;27.558;2023-04-06T05:41:47;4.30;;;3.30;;
78840;SDS011;68379;47.190;27.558;2023-04-06T05:44:19;4.10;;;2.80;;
78840;SDS011;68379;47.190;27.558;2023-04-06T05:46:51;3.40;;;2.70;;
78840;SDS011;68379;47.190;27.558;2023-04-06T05:49:23;4.40;;;2.60;;
78840;SDS011;68379;47.190;27.558;2023-04-06T05:51:55;3.60;;;1.70;;
78840;SDS011;68379;47.190;27.558;2023-04-06T05:54:27;5.50;;;3.20;;
78840;SDS011;68379;47.190;27.558;2023-04-06T05:56:59;6.80;;;4.10;;
78840;SDS011;68379;47.190;27.558;2023-04-06T05:59:33;4.60;;;3.10;;
78840;SDS011;68379;47.190;27.558;2023-04-06T06:02:05;5.80;;;3.80;;
78840;SDS011;68379;47.190;27.558;2023-04-06T06:04:37;4.80;;;3.20;;
78840;SDS011;68379;47.190;27.558;2023-04-06T06:07:09;4.90;;;2.70;;
78840;SDS011;68379;47.190;27.558;2023-04-06T06:09:41;5.10;;;2.80;;
78840;SDS011;68379;47.190;27.558;2023-04-06T06:12:12;5.40;;;3.00;;
78840;SDS011;68379;47.190;27.558;2023-04-06T06:14:44;5.20;;;3.50;;
78840;SDS011;68379;47.190;27.558;2023-04-06T06:17:16;4.20;;;1.90;;
78840;SDS011;68379;47.190;27.558;2023-04-06T06:19:47;5.50;;;3.10;;
78840;SDS011;68379;47.190;27.558;2023-04-06T06:22:19;3.40;;;2.20;;
78840;SDS011;68379;47.190;27.558;2023-04-06T06:24:51;3.70;;;2.70;;
78840;SDS011;68379;47.190;27.558;2023-04-06T06:27:23;4.40;;;2.70;;
78840;SDS011;68379;47.190;27.558;2023-04-06T06:29:55;4.80;;;3.30;;
78840;SDS011;68379;47.190;27.558;2023-04-06T06:32:27;5.30;;;3.70;;
78840;SDS011;68379;47.190;27.558;2023-04-06T06:34:59;3.10;;;2.70;;
78840;SDS011;68379;47.190;27.558;2023-04-06T06:37:31;4.40;;;3.20;;
78840;SDS011;68379;47.190;27.558;2023-04-06T06:40:03;4.50;;;3.20;;
78840;SDS011;68379;47.190;27.558;2023-04-06T06:42:36;3.10;;;1.80;;
78840;SDS011;68379;47.190;27.558;2023-04-06T06:45:09;5.50;;;2.30;;
78840;SDS011;68379;47.190;27.558;2023-04-06T06:47:41;8.30;;;4.90;;
78840;SDS011;68379;47.190;27.558;2023-04-06T06:50:12;6.30;;;3.70;;
78840;SDS011;68379;47.190;27.558;2023-04-06T06:52:44;7.50;;;4.10;;
78840;SDS011;68379;47.190;27.558;2023-04-06T06:55:16;5.40;;;3.20;;
78840;SDS011;68379;47.190;27.558;2023-04-06T06:57:48;5.80;;;3.90;;
78840;SDS011;68379;47.190;27.558;2023-04-06T07:00:21;4.00;;;2.30;;
78840;SDS011;68379;47.190;27.558;2023-04-06T07:02:53;4.10;;;3.00;;
78840;SDS011;68379;47.190;27.558;2023-04-06T07:05:25;6.10;;;3.40;;
78840;SDS011;68379;47.190;27.558;2023-04-06T07:07:56;4.20;;;2.50;;
78840;SDS011;68379;47.190;27.558;2023-04-06T07:10:28;5.20;;;3.70;;
78840;SDS011;68379;47.190;27.558;2023-04-06T07:13:00;3.50;;;2.00;;
78840;SDS011;68379;47.190;27.558;2023-04-06T07:15:32;5.90;;;3.40;;
78840;SDS011;68379;47.190;27.558;2023-04-06T07:18:03;4.30;;;2.80;;
78840;SDS011;68379;47.190;27.558;2023-04-06T07:20:35;4.30;;;3.10;;
78840;SDS011;68379;47.190;27.558;2023-04-06T07:23:07;4.00;;;2.30;;
78840;SDS011;68379;47.190;27.558;2023-04-06T07:25:38;6.40;;;3.50;;
78840;SDS011;68379;47.190;27.558;2023-04-06T07:28:10;4.90;;;2.70;;
78840;SDS011;68379;47.190;27.558;2023-04-06T07:30:42;1.40;;;1.20;;
78840;SDS011;68379;47.190;27.558;2023-04-06T07:33:14;3.30;;;1.70;;
78840;SDS011;68379;47.190;27.558;2023-04-06T07:35:45;3.30;;;2.40;;
78840;SDS011;68379;47.190;27.558;2023-04-06T07:38:18;5.80;;;3.70;;
78840;SDS011;68379;47.190;27.558;2023-04-06T07:40:49;6.30;;;4.10;;
78840;SDS011;68379;47.190;27.558;2023-04-06T07:43:21;7.00;;;3.80;;
78840;SDS011;68379;47.190;27.558;2023-04-06T07:45:53;6.10;;;3.80;;
78840;SDS011;68379;47.190;27.558;2023-04-06T07:48:25;4.10;;;2.70;;
78840;SDS011;68379;47.190;27.558;2023-04-06T07:51:02;4.40;;;2.80;;
78840;SDS011;68379;47.190;27.558;2023-04-06T07:53:34;4.10;;;2.90;;
78840;SDS011;68379;47.190;27.558;2023-04-06T07:56:06;4.60;;;3.30;;
78840;SDS011;68379;47.190;27.558;2023-04-06T07:58:38;4.70;;;3.00;;
78840;SDS011;68379;47.190;27.558;2023-04-06T08:01:10;3.90;;;2.90;;
78840;SDS011;68379;47.190;27.558;2023-04-06T08:03:42;4.30;;;3.30;;
78840;SDS011;68379;47.190;27.558;2023-04-06T08:06:15;4.60;;;2.60;;
78840;SDS011;68379;47.190;27.558;2023-04-06T08:08:46;5.70;;;3.40;;
78840;SDS011;68379;47.190;27.558;2023-04-06T08:11:18;4.90;;;3.50;;
78840;SDS011;68379;47.190;27.558;2023-04-06T08:13:50;5.10;;;3.70;;
78840;SDS011;68379;47.190;27.558;2023-04-06T08:16:22;4.60;;;3.10;;
78840;SDS011;68379;47.190;27.558;2023-04-06T08:18:54;5.80;;;3.80;;
78840;SDS011;68379;47.190;27.558;2023-04-06T08:21:26;5.40;;;3.40;;
78840;SDS011;68379;47.190;27.558;2023-04-06T08:23:57;6.90;;;4.50;;
78840;SDS011;68379;47.190;27.558;2023-04-06T08:26:30;6.80;;;4.90;;
78840;SDS011;68379;47.190;27.558;2023-04-06T08:29:01;5.60;;;4.20;;
78840;SDS011;68379;47.190;27.558;2023-04-06T08:31:35;7.20;;;4.10;;
78840;SDS011;68379;47.190;27.558;2023-04-06T08:34:07;5.60;;;4.00;;
78840;SDS011;68379;47.190;27.558;2023-04-06T08:36:39;5.90;;;3.60;;
78840;SDS011;68379;47.190;27.558;2023-04-06T08:39:11;5.00;;;3.80;;
78840;SDS011;68379;47.190;27.558;2023-04-06T08:41:45;5.10;;;3.60;;
78840;SDS011;68379;47.190;27.558;2023-04-06T08:44:17;5.10;;;3.40;;
78840;SDS011;68379;47.190;27.558;2023-04-06T08:46:49;7.30;;;4.30;;
78840;SDS011;68379;47.190;27.558;2023-04-06T08:49:22;7.60;;;5.00;;
78840;SDS011;68379;47.190;27.558;2023-04-06T08:51:54;8.30;;;5.10;;
78840;SDS011;68379;47.190;27.558;2023-04-06T08:54:27;4.60;;;2.80;;
78840;SDS011;68379;47.190;27.558;2023-04-06T08:56:59;6.20;;;4.20;;
78840;SDS011;68379;47.190;27.558;2023-04-06T08:59:31;6.50;;;4.90;;
78840;SDS011;68379;47.190;27.558;2023-04-06T09:02:04;6.30;;;4.80;;
78840;SDS011;68379;47.190;27.558;2023-04-06T09:04:41;4.80;;;3.00;;
78840;SDS011;68379;47.190;27.558;2023-04-06T09:07:14;5.00;;;3.30;;
78840;SDS011;68379;47.190;27.558;2023-04-06T09:09:46;6.10;;;4.10;;
78840;SDS011;68379;47.190;27.558;2023-04-06T09:12:27;7.10;;;4.50;;
78840;SDS011;68379;47.190;27.558;2023-04-06T09:15:00;6.30;;;4.60;;
78840;SDS011;68379;47.190;27.558;2023-04-06T09:17:33;7.30;;;4.30;;
78840;SDS011;68379;47.190;27.558;2023-04-06T09:20:06;5.90;;;4.70;;
78840;SDS011;68379;47.190;27.558;2023-04-06T09:22:39;6.20;;;4.70;;
78840;SDS011;68379;47.190;27.558;2023-04-06T09:25:17;8.40;;;5.30;;
78840;SDS011;68379;47.190;27.558;2023-04-06T09:27:59;8.20;;;5.00;;
78840;SDS011;68379;47.190;27.558;2023-04-06T09:30:32;6.50;;;4.00;;
78840;SDS011;68379;47.190;27.558;2023-04-06T09:33:04;7.00;;;4.70;;
78840;SDS011;68379;47.190;27.558;2023-04-06T09:35:36;7.60;;;4.30;;
78840;SDS011;68379;47.190;27.558;2023-04-06T09:38:12;5.90;;;3.70;;
78840;SDS011;68379;47.190;27.558;2023-04-06T09:40:50;4.60;;;3.10;;
78840;SDS011;68379;47.190;27.558;2023-04-06T09:43:25;5.70;;;4.30;;
78840;SDS011;68379;47.190;27.558;2023-04-06T09:45:57;4.20;;;3.60;;
78840;SDS011;68379;47.190;27.558;2023-04-06T09:48:32;6.10;;;3.90;;
78840;SDS011;68379;47.190;27.558;2023-04-06T09:51:06;5.90;;;4.30;;
78840;SDS011;68379;47.190;27.558;2023-04-06T09:53:43;6.00;;;4.20;;
78840;SDS011;68379;47.190;27.558;2023-04-06T09:56:20;4.40;;;3.10;;
78840;SDS011;68379;47.190;27.558;2023-04-06T09:59:00;4.40;;;3.70;;
78840;SDS011;68379;47.190;27.558;2023-04-06T10:01:38;3.60;;;3.20;;
78840;SDS011;68379;47.190;27.558;2023-04-06T10:04:17;5.40;;;3.90;;
78840;SDS011;68379;47.190;27.558;2023-04-06T10:06:56;4.40;;;3.30;;
78840;SDS011;68379;47.190;27.558;2023-04-06T10:09:28;4.60;;;3.60;;
78840;SDS011;68379;47.190;27.558;2023-04-06T10:12:05;5.60;;;4.00;;
78840;SDS011;68379;47.190;27.558;2023-04-06T10:14:37;4.50;;;3.60;;
78840;SDS011;68379;47.190;27.558;2023-04-06T10:17:10;5.00;;;3.40;;
78840;SDS011;68379;47.190;27.558;2023-04-06T10:19:44;4.50;;;3.90;;
78840;SDS011;68379;47.190;27.558;2023-04-06T10:22:22;4.40;;;3.30;;
78840;SDS011;68379;47.190;27.558;2023-04-06T10:24:58;3.90;;;3.30;;
78840;SDS011;68379;47.190;27.558;2023-04-06T10:27:31;3.90;;;3.40;;
78840;SDS011;68379;47.190;27.558;2023-04-06T10:30:05;5.10;;;3.60;;
78840;SDS011;68379;47.190;27.558;2023-04-06T10:32:38;5.60;;;3.30;;
78840;SDS011;68379;47.190;27.558;2023-04-06T10:35:11;5.00;;;3.60;;
78840;SDS011;68379;47.190;27.558;2023-04-06T10:37:49;6.30;;;3.30;;
78840;SDS011;68379;47.190;27.558;2023-04-06T10:40:23;4.40;;;3.20;;
78840;SDS011;68379;47.190;27.558;2023-04-06T10:43:06;4.30;;;3.20;;
78840;SDS011;68379;47.190;27.558;2023-04-06T10:45:40;4.00;;;3.60;;
78840;SDS011;68379;47.190;27.558;2023-04-06T10:48:15;6.00;;;4.60;;
78840;SDS011;68379;47.190;27.558;2023-04-06T10:50:49;8.90;;;6.90;;
78840;SDS011;68379;47.190;27.558;2023-04-06T10:53:22;8.10;;;5.80;;
78840;SDS011;68379;47.190;27.558;2023-04-06T10:55:55;9.60;;;6.30;;
78840;SDS011;68379;47.190;27.558;2023-04-06T10:58:27;11.20;;;6.60;;
78840;SDS011;68379;47.190;27.558;2023-04-06T11:00:59;8.80;;;5.80;;
78840;SDS011;68379;47.190;27.558;2023-04-06T11:03:31;9.40;;;6.70;;
78840;SDS011;68379;47.190;27.558;2023-04-06T11:06:17;9.10;;;6.90;;
78840;SDS011;68379;47.190;27.558;2023-04-06T11:08:49;8.60;;;6.60;;
78840;SDS011;68379;47.190;27.558;2023-04-06T11:11:23;9.70;;;7.20;;
78840;SDS011;68379;47.190;27.558;2023-04-06T11:13:56;12.60;;;8.10;;
78840;SDS011;68379;47.190;27.558;2023-04-06T11:16:29;10.40;;;7.90;;
78840;SDS011;68379;47.190;27.558;2023-04-06T11:19:02;13.80;;;8.50;;
78840;SDS011;68379;47.190;27.558;2023-04-06T11:21:36;14.70;;;9.40;;
78840;SDS011;68379;47.190;27.558;2023-04-06T11:24:10;12.20;;;7.60;;
78840;SDS011;68379;47.190;27.558;2023-04-06T11:26:44;10.20;;;7.10;;
78840;SDS011;68379;47.190;27.558;2023-04-06T11:29:18;10.40;;;6.00;;
78840;SDS011;68379;47.190;27.558;2023-04-06T11:31:51;9.20;;;6.40;;
78840;SDS011;68379;47.190;27.558;2023-04-06T11:34:28;8.70;;;6.40;;
78840;SDS011;68379;47.190;27.558;2023-04-06T11:37:04;11.90;;;7.50;;
78840;SDS011;68379;47.190;27.558;2023-04-06T11:39:39;10.80;;;7.70;;
78840;SDS011;68379;47.190;27.558;2023-04-06T11:42:12;10.80;;;6.80;;
78840;SDS011;68379;47.190;27.558;2023-04-06T11:44:53;7.40;;;5.00;;
78840;SDS011;68379;47.190;27.558;2023-04-06T11:47:30;7.80;;;5.70;;
78840;SDS011;68379;47.190;27.558;2023-04-06T11:50:10;7.90;;;5.60;;
78840;SDS011;68379;47.190;27.558;2023-04-06T11:52:43;7.00;;;4.40;;
78840;SDS011;68379;47.190;27.558;2023-04-06T11:55:15;7.90;;;5.40;;
78840;SDS011;68379;47.190;27.558;2023-04-06T11:57:48;7.00;;;5.80;;
78840;SDS011;68379;47.190;27.558;2023-04-06T12:00:21;10.00;;;7.30;;
78840;SDS011;68379;47.190;27.558;2023-04-06T12:02:53;6.70;;;5.60;;
78840;SDS011;68379;47.190;27.558;2023-04-06T12:05:25;10.60;;;7.10;;
78840;SDS011;68379;47.190;27.558;2023-04-06T12:07:56;12.10;;;7.10;;
78840;SDS011;68379;47.190;27.558;2023-04-06T12:10:28;9.40;;;5.40;;
78840;SDS011;68379;47.190;27.558;2023-04-06T12:13:00;9.50;;;6.30;;
78840;SDS011;68379;47.190;27.558;2023-04-06T12:15:33;9.50;;;6.50;;
78840;SDS011;68379;47.190;27.558;2023-04-06T12:18:05;10.40;;;6.20;;
78840;SDS011;68379;47.190;27.558;2023-04-06T12:20:37;7.80;;;4.80;;
78840;SDS011;68379;47.190;27.558;2023-04-06T12:23:09;8.60;;;6.00;;
78840;SDS011;68379;47.190;27.558;2023-04-06T12:25:42;8.40;;;4.80;;
78840;SDS011;68379;47.190;27.558;2023-04-06T12:28:14;9.20;;;5.40;;
78840;SDS011;68379;47.190;27.558;2023-04-06T12:30:46;11.60;;;4.90;;
78840;SDS011;68379;47.190;27.558;2023-04-06T12:33:17;7.80;;;4.70;;
78840;SDS011;68379;47.190;27.558;2023-04-06T12:35:50;11.20;;;7.00;;
78840;SDS011;68379;47.190;27.558;2023-04-06T12:38:21;8.80;;;5.40;;
78840;SDS011;68379;47.190;27.558;2023-04-06T12:40:53;9.00;;;5.70;;
78840;SDS011;68379;47.190;27.558;2023-04-06T12:43:25;8.00;;;5.20;;
78840;SDS011;68379;47.190;27.558;2023-04-06T12:45:57;6.30;;;4.50;;
78840;SDS011;68379;47.190;27.558;2023-04-06T12:48:28;5.30;;;3.70;;
78840;SDS011;68379;47.190;27.558;2023-04-06T12:51:01;4.70;;;3.60;;
78840;SDS011;68379;47.190;27.558;2023-04-06T12:53:35;6.20;;;4.20;;
78840;SDS011;68379;47.190;27.558;2023-04-06T12:56:13;6.40;;;4.80;;
78840;SDS011;68379;47.190;27.558;2023-04-06T12:58:46;6.70;;;4.30;;
78840;SDS011;68379;47.190;27.558;2023-04-06T13:01:20;8.90;;;4.70;;
78840;SDS011;68379;47.190;27.558;2023-04-06T13:03:53;7.40;;;4.60;;
78840;SDS011;68379;47.190;27.558;2023-04-06T13:06:25;7.10;;;5.10;;
78840;SDS011;68379;47.190;27.558;2023-04-06T13:08:57;7.50;;;4.10;;
78840;SDS011;68379;47.190;27.558;2023-04-06T13:11:29;4.60;;;3.20;;
78840;SDS011;68379;47.190;27.558;2023-04-06T13:14:01;5.90;;;3.40;;
78840;SDS011;68379;47.190;27.558;2023-04-06T13:16:33;7.80;;;5.10;;
78840;SDS011;68379;47.190;27.558;2023-04-06T13:19:06;6.70;;;4.90;;
78840;SDS011;68379;47.190;27.558;2023-04-06T13:21:39;6.80;;;5.00;;
78840;SDS011;68379;47.190;27.558;2023-04-06T13:24:10;6.10;;;3.80;;
78840;SDS011;68379;47.190;27.558;2023-04-06T13:26:42;8.20;;;4.60;;
78840;SDS011;68379;47.190;27.558;2023-04-06T13:29:14;7.20;;;4.90;;
78840;SDS011;68379;47.190;27.558;2023-04-06T13:31:49;9.00;;;4.70;;
78840;SDS011;68379;47.190;27.558;2023-04-06T13:34:34;8.20;;;4.60;;
78840;SDS011;68379;47.190;27.558;2023-04-06T13:37:06;6.60;;;4.80;;
78840;SDS011;68379;47.190;27.558;2023-04-06T13:39:38;6.70;;;3.70;;
78840;SDS011;68379;47.190;27.558;2023-04-06T13:42:09;4.80;;;2.90;;
78840;SDS011;68379;47.190;27.558;2023-04-06T13:44:42;6.50;;;4.90;;
78840;SDS011;68379;47.190;27.558;2023-04-06T13:47:15;4.40;;;3.10;;
78840;SDS011;68379;47.190;27.558;2023-04-06T13:49:47;7.90;;;4.60;;
78840;SDS011;68379;47.190;27.558;2023-04-06T13:52:21;7.50;;;4.70;;
78840;SDS011;68379;47.190;27.558;2023-04-06T13:54:53;6.30;;;4.00;;
78840;SDS011;68379;47.190;27.558;2023-04-06T13:57:25;8.00;;;4.40;;
78840;SDS011;68379;47.190;27.558;2023-04-06T13:59:58;6.50;;;3.90;;
78840;SDS011;68379;47.190;27.558;2023-04-06T14:02:29;7.40;;;4.90;;
78840;SDS011;68379;47.190;27.558;2023-04-06T14:05:01;6.00;;;4.50;;
78840;SDS011;68379;47.190;27.558;2023-04-06T14:07:33;5.50;;;3.90;;
78840;SDS011;68379;47.190;27.558;2023-04-06T14:10:07;5.10;;;4.00;;
78840;SDS011;68379;47.190;27.558;2023-04-06T14:12:43;5.70;;;3.80;;
78840;SDS011;68379;47.190;27.558;2023-04-06T14:15:15;5.40;;;3.90;;
78840;SDS011;68379;47.190;27.558;2023-04-06T14:17:47;9.20;;;5.90;;
78840;SDS011;68379;47.190;27.558;2023-04-06T14:20:19;8.90;;;5.70;;
78840;SDS011;68379;47.190;27.558;2023-04-06T14:22:51;9.00;;;5.10;;
78840;SDS011;68379;47.190;27.558;2023-04-06T14:25:24;7.70;;;4.80;;
78840;SDS011;68379;47.190;27.558;2023-04-06T14:27:56;7.50;;;5.20;;
78840;SDS011;68379;47.190;27.558;2023-04-06T14:30:30;8.10;;;5.10;;
78840;SDS011;68379;47.190;27.558;2023-04-06T14:33:02;7.00;;;5.20;;
78840;SDS011;68379;47.190;27.558;2023-04-06T14:35:35;7.20;;;4.50;;
78840;SDS011;68379;47.190;27.558;2023-04-06T14:38:09;7.80;;;5.50;;
78840;SDS011;68379;47.190;27.558;2023-04-06T14:40:41;6.60;;;4.70;;
78840;SDS011;68379;47.190;27.558;2023-04-06T14:43:13;7.40;;;5.00;;
78840;SDS011;68379;47.190;27.558;2023-04-06T14:45:45;9.40;;;5.80;;
78840;SDS011;68379;47.190;27.558;2023-04-06T14:48:17;8.70;;;5.40;;
78840;SDS011;68379;47.190;27.558;2023-04-06T14:50:53;8.20;;;5.10;;
78840;SDS011;68379;47.190;27.558;2023-04-06T14:53:25;6.10;;;4.20;;
78840;SDS011;68379;47.190;27.558;2023-04-06T14:55:58;6.20;;;4.10;;
78840;SDS011;68379;47.190;27.558;2023-04-06T14:58:30;7.80;;;4.80;;
78840;SDS011;68379;47.190;27.558;2023-04-06T15:01:02;9.80;;;5.80;;
78840;SDS011;68379;47.190;27.558;2023-04-06T15:03:34;8.00;;;4.90;;
78840;SDS011;68379;47.190;27.558;2023-04-06T15:06:11;6.20;;;4.60;;